sensor_id;sensor_type;location;lat;lon;timestamp;pressure;altitude;pressure_sealevel;temperature;humidity
76434;BME280;65265;53.200;6.080;2023-08-24T00:03:17;101969.66;;;13.63;100.00
76434;BME280;65265;53.200;6.080;2023-08-24T00:08:13;101952.47;;;13.62;100.00
76434;BME280;65265;53.200;6.080;2023-08-24T00:13:05;101946.25;;;13.76;100.00
76434;BME280;65265;53.200;6.080;2023-08-24T00:17:57;101945.13;;;13.90;100.00
76434;BME280;65265;53.200;6.080;2023-08-24T00:22:49;101941.88;;;13.94;100.00
76434;BME280;65265;53.200;6.080;2023-08-24T00:27:42;101932.81;;;14.02;100.00
76434;BME280;65265;53.200;6.080;2023-08-24T00:32:34;101926.84;;;14.03;100.00
76434;BME280;65265;53.200;6.080;2023-08-24T00:37:26;101931.06;;;14.01;100.00
76434;BME280;65265;53.200;6.080;2023-08-24T00:42:18;101932.28;;;14.09;100.00
76434;BME280;65265;53.200;6.080;2023-08-24T00:47:12;101922.53;;;14.21;100.00
76434;BME280;65265;53.200;6.080;2023-08-24T00:52:04;101910.28;;;14.36;100.00
76434;BME280;65265;53.200;6.080;2023-08-24T00:56:56;101921.78;;;14.43;100.00
76434;BME280;65265;53.200;6.080;2023-08-24T01:01:48;101905.44;;;14.43;100.00
76434;BME280;65265;53.200;6.080;2023-08-24T01:06:42;101897.28;;;14.53;100.00
76434;BME280;65265;53.200;6.080;2023-08-24T01:11:43;101892.44;;;14.60;100.00
76434;BME280;65265;53.200;6.080;2023-08-24T01:16:37;101884.88;;;14.63;100.00
76434;BME280;65265;53.200;6.080;2023-08-24T01:21:30;101869.53;;;14.66;100.00
76434;BME280;65265;53.200;6.080;2023-08-24T01:26:24;101881.41;;;14.85;100.00
76434;BME280;65265;53.200;6.080;2023-08-24T01:31:17;101850.81;;;14.92;100.00
76434;BME280;65265;53.200;6.080;2023-08-24T01:36:09;101845.06;;;14.99;100.00
76434;BME280;65265;53.200;6.080;2023-08-24T01:41:09;101845.97;;;15.00;100.00
76434;BME280;65265;53.200;6.080;2023-08-24T01:46:05;101853.09;;;15.07;100.00
76434;BME280;65265;53.200;6.080;2023-08-24T01:50:59;101846.41;;;15.12;100.00
76434;BME280;65265;53.200;6.080;2023-08-24T01:55:51;101855.00;;;15.12;100.00
76434;BME280;65265;53.200;6.080;2023-08-24T02:00:43;101851.59;;;15.13;100.00
76434;BME280;65265;53.200;6.080;2023-08-24T02:05:37;101860.13;;;15.11;100.00
76434;BME280;65265;53.200;6.080;2023-08-24T02:10:28;101862.63;;;15.09;100.00
76434;BME280;65265;53.200;6.080;2023-08-24T02:15:20;101874.63;;;15.09;100.00
76434;BME280;65265;53.200;6.080;2023-08-24T02:20:12;101878.81;;;15.05;100.00
76434;BME280;65265;53.200;6.080;2023-08-24T02:25:08;101870.06;;;15.02;100.00
76434;BME280;65265;53.200;6.080;2023-08-24T02:30:00;101859.00;;;15.04;100.00
76434;BME280;65265;53.200;6.080;2023-08-24T02:34:52;101848.75;;;15.06;100.00
76434;BME280;65265;53.200;6.080;2023-08-24T02:39:43;101843.53;;;15.04;100.00
76434;BME280;65265;53.200;6.080;2023-08-24T02:44:36;101843.22;;;14.95;100.00
76434;BME280;65265;53.200;6.080;2023-08-24T02:49:28;101836.06;;;14.88;100.00
76434;BME280;65265;53.200;6.080;2023-08-24T02:54:20;101819.50;;;14.82;100.00
76434;BME280;65265;53.200;6.080;2023-08-24T02:59:12;101822.06;;;14.82;100.00
76434;BME280;65265;53.200;6.080;2023-08-24T03:04:06;101830.66;;;14.82;100.00
76434;BME280;65265;53.200;6.080;2023-08-24T03:09:00;101839.91;;;14.77;100.00
76434;BME280;65265;53.200;6.080;2023-08-24T03:13:54;101841.50;;;14.74;100.00
76434;BME280;65265;53.200;6.080;2023-08-24T03:18:45;101844.72;;;14.68;100.00
76434;BME280;65265;53.200;6.080;2023-08-24T03:23:38;101836.06;;;14.66;100.00
76434;BME280;65265;53.200;6.080;2023-08-24T03:28:30;101828.50;;;14.71;100.00
76434;BME280;65265;53.200;6.080;2023-08-24T03:33:21;101831.25;;;14.75;100.00
76434;BME280;65265;53.200;6.080;2023-08-24T03:38:13;101825.41;;;14.79;100.00
76434;BME280;65265;53.200;6.080;2023-08-24T03:43:06;101827.28;;;14.83;100.00
76434;BME280;65265;53.200;6.080;2023-08-24T03:47:58;101824.88;;;14.88;100.00
76434;BME280;65265;53.200;6.080;2023-08-24T03:52:50;101831.94;;;14.93;100.00
76434;BME280;65265;53.200;6.080;2023-08-24T03:57:42;101828.72;;;14.99;100.00
76434;BME280;65265;53.200;6.080;2023-08-24T04:02:35;101820.25;;;15.01;100.00
76434;BME280;65265;53.200;6.080;2023-08-24T04:07:27;101833.28;;;15.06;100.00
76434;BME280;65265;53.200;6.080;2023-08-24T04:12:18;101829.13;;;15.09;100.00
76434;BME280;65265;53.200;6.080;2023-08-24T04:17:10;101819.75;;;15.11;100.00
76434;BME280;65265;53.200;6.080;2023-08-24T04:22:04;101801.78;;;15.13;100.00
76434;BME280;65265;53.200;6.080;2023-08-24T04:26:55;101789.72;;;15.12;100.00
76434;BME280;65265;53.200;6.080;2023-08-24T04:31:47;101785.22;;;15.06;100.00
76434;BME280;65265;53.200;6.080;2023-08-24T04:36:38;101787.56;;;15.00;100.00
76434;BME280;65265;53.200;6.080;2023-08-24T04:41:32;101764.03;;;14.91;100.00
76434;BME280;65265;53.200;6.080;2023-08-24T04:46:23;101772.59;;;14.90;100.00
76434;BME280;65265;53.200;6.080;2023-08-24T04:51:16;101772.25;;;14.81;100.00
76434;BME280;65265;53.200;6.080;2023-08-24T04:56:08;101778.19;;;14.79;100.00
76434;BME280;65265;53.200;6.080;2023-08-24T05:01:01;101771.88;;;14.71;100.00
76434;BME280;65265;53.200;6.080;2023-08-24T05:05:53;101772.44;;;14.64;100.00
76434;BME280;65265;53.200;6.080;2023-08-24T05:10:44;101783.97;;;14.73;100.00
76434;BME280;65265;53.200;6.080;2023-08-24T05:15:36;101780.59;;;14.74;100.00
76434;BME280;65265;53.200;6.080;2023-08-24T05:20:32;101783.28;;;14.77;100.00
76434;BME280;65265;53.200;6.080;2023-08-24T05:25:24;101781.69;;;14.81;100.00
76434;BME280;65265;53.200;6.080;2023-08-24T05:30:16;101756.94;;;14.84;100.00
76434;BME280;65265;53.200;6.080;2023-08-24T05:35:08;101745.69;;;14.82;100.00
76434;BME280;65265;53.200;6.080;2023-08-24T05:40:02;101763.19;;;14.91;100.00
76434;BME280;65265;53.200;6.080;2023-08-24T05:44:55;101765.59;;;14.86;100.00
76434;BME280;65265;53.200;6.080;2023-08-24T05:49:47;101770.19;;;14.95;100.00
76434;BME280;65265;53.200;6.080;2023-08-24T05:54:38;101771.41;;;15.04;100.00
76434;BME280;65265;53.200;6.080;2023-08-24T05:59:33;101759.13;;;14.97;100.00
76434;BME280;65265;53.200;6.080;2023-08-24T06:04:24;101786.50;;;15.17;100.00
76434;BME280;65265;53.200;6.080;2023-08-24T06:09:16;101786.66;;;15.22;100.00
76434;BME280;65265;53.200;6.080;2023-08-24T06:14:08;101777.44;;;15.28;100.00
76434;BME280;65265;53.200;6.080;2023-08-24T06:19:01;101765.69;;;15.35;100.00
76434;BME280;65265;53.200;6.080;2023-08-24T06:23:53;101747.84;;;15.41;100.00
76434;BME280;65265;53.200;6.080;2023-08-24T06:28:45;101749.91;;;15.51;100.00
76434;BME280;65265;53.200;6.080;2023-08-24T06:33:38;101747.59;;;15.58;100.00
76434;BME280;65265;53.200;6.080;2023-08-24T06:38:31;101729.03;;;15.68;100.00
76434;BME280;65265;53.200;6.080;2023-08-24T06:43:23;101733.75;;;15.81;100.00
76434;BME280;65265;53.200;6.080;2023-08-24T06:48:14;101721.25;;;15.93;100.00
76434;BME280;65265;53.200;6.080;2023-08-24T06:53:06;101708.50;;;15.98;100.00
76434;BME280;65265;53.200;6.080;2023-08-24T06:58:00;101665.16;;;15.86;100.00
76434;BME280;65265;53.200;6.080;2023-08-24T07:02:52;101690.25;;;16.18;100.00
76434;BME280;65265;53.200;6.080;2023-08-24T07:07:44;101673.38;;;16.29;100.00
76434;BME280;65265;53.200;6.080;2023-08-24T07:12:36;101652.84;;;16.34;100.00
76434;BME280;65265;53.200;6.080;2023-08-24T07:17:29;101647.47;;;16.54;100.00
76434;BME280;65265;53.200;6.080;2023-08-24T07:22:21;101654.91;;;16.75;100.00
76434;BME280;65265;53.200;6.080;2023-08-24T07:27:13;101619.66;;;16.75;100.00
76434;BME280;65265;53.200;6.080;2023-08-24T07:32:04;101628.28;;;17.08;100.00
76434;BME280;65265;53.200;6.080;2023-08-24T07:36:58;101624.25;;;17.19;100.00
76434;BME280;65265;53.200;6.080;2023-08-24T07:41:50;101633.34;;;17.36;100.00
76434;BME280;65265;53.200;6.080;2023-08-24T07:46:41;101642.41;;;17.54;100.00
76434;BME280;65265;53.200;6.080;2023-08-24T07:51:33;101630.72;;;17.70;100.00
76434;BME280;65265;53.200;6.080;2023-08-24T07:56:27;101624.28;;;17.90;100.00
76434;BME280;65265;53.200;6.080;2023-08-24T08:01:19;101639.34;;;18.06;100.00
76434;BME280;65265;53.200;6.080;2023-08-24T08:06:10;101642.19;;;18.18;100.00
76434;BME280;65265;53.200;6.080;2023-08-24T08:11:03;101638.31;;;18.38;100.00
76434;BME280;65265;53.200;6.080;2023-08-24T08:16:01;101616.28;;;18.56;100.00
76434;BME280;65265;53.200;6.080;2023-08-24T08:20:54;101571.34;;;18.56;100.00
76434;BME280;65265;53.200;6.080;2023-08-24T08:25:46;101565.75;;;18.79;100.00
76434;BME280;65265;53.200;6.080;2023-08-24T08:30:38;101579.22;;;19.09;100.00
76434;BME280;65265;53.200;6.080;2023-08-24T08:35:31;101602.97;;;19.29;100.00
76434;BME280;65265;53.200;6.080;2023-08-24T08:40:24;101595.47;;;19.47;100.00
76434;BME280;65265;53.200;6.080;2023-08-24T08:45:22;101597.88;;;19.92;100.00
76434;BME280;65265;53.200;6.080;2023-08-24T08:50:16;101572.03;;;20.01;100.00
76434;BME280;65265;53.200;6.080;2023-08-24T08:55:09;101583.22;;;19.96;100.00
76434;BME280;65265;53.200;6.080;2023-08-24T09:00:02;101566.00;;;20.01;100.00
76434;BME280;65265;53.200;6.080;2023-08-24T09:04:53;101572.31;;;20.19;100.00
76434;BME280;65265;53.200;6.080;2023-08-24T09:09:45;101570.88;;;20.45;100.00
76434;BME280;65265;53.200;6.080;2023-08-24T09:14:39;101551.00;;;20.49;100.00
76434;BME280;65265;53.200;6.080;2023-08-24T09:19:32;101575.69;;;20.85;100.00
76434;BME280;65265;53.200;6.080;2023-08-24T09:24:29;101561.06;;;20.96;100.00
76434;BME280;65265;53.200;6.080;2023-08-24T09:29:21;101553.25;;;20.98;100.00
76434;BME280;65265;53.200;6.080;2023-08-24T09:34:14;101543.72;;;20.95;100.00
76434;BME280;65265;53.200;6.080;2023-08-24T09:39:06;101561.03;;;20.95;100.00
76434;BME280;65265;53.200;6.080;2023-08-24T09:44:03;101550.59;;;20.90;100.00
76434;BME280;65265;53.200;6.080;2023-08-24T09:48:54;101530.59;;;20.83;100.00
76434;BME280;65265;53.200;6.080;2023-08-24T09:53:49;101521.88;;;20.80;100.00
76434;BME280;65265;53.200;6.080;2023-08-24T09:58:42;101521.91;;;20.83;100.00
76434;BME280;65265;53.200;6.080;2023-08-24T10:03:34;101520.09;;;20.74;100.00
76434;BME280;65265;53.200;6.080;2023-08-24T10:08:35;101492.25;;;20.66;100.00
76434;BME280;65265;53.200;6.080;2023-08-24T10:13:34;101489.63;;;20.61;100.00
76434;BME280;65265;53.200;6.080;2023-08-24T10:18:28;101480.06;;;20.56;100.00
76434;BME280;65265;53.200;6.080;2023-08-24T10:23:20;101469.56;;;20.47;100.00
76434;BME280;65265;53.200;6.080;2023-08-24T10:28:13;101456.44;;;20.36;100.00
76434;BME280;65265;53.200;6.080;2023-08-24T10:33:06;101451.22;;;20.30;100.00
76434;BME280;65265;53.200;6.080;2023-08-24T10:38:00;101445.94;;;20.23;100.00
76434;BME280;65265;53.200;6.080;2023-08-24T10:42:52;101454.56;;;20.17;100.00
76434;BME280;65265;53.200;6.080;2023-08-24T10:47:44;101455.34;;;20.13;100.00
76434;BME280;65265;53.200;6.080;2023-08-24T10:52:43;101445.66;;;20.00;100.00
76434;BME280;65265;53.200;6.080;2023-08-24T10:57:35;101467.38;;;20.04;100.00
76434;BME280;65265;53.200;6.080;2023-08-24T11:02:27;101467.25;;;19.98;100.00
76434;BME280;65265;53.200;6.080;2023-08-24T11:07:19;101439.28;;;19.76;100.00
76434;BME280;65265;53.200;6.080;2023-08-24T11:12:12;101448.88;;;19.81;100.00
76434;BME280;65265;53.200;6.080;2023-08-24T11:17:17;101449.66;;;19.73;100.00
76434;BME280;65265;53.200;6.080;2023-08-24T11:22:09;101435.75;;;19.69;100.00
76434;BME280;65265;53.200;6.080;2023-08-24T11:27:02;101423.63;;;19.67;100.00
76434;BME280;65265;53.200;6.080;2023-08-24T11:31:57;101422.81;;;19.71;100.00
76434;BME280;65265;53.200;6.080;2023-08-24T11:36:49;101426.38;;;19.79;100.00
76434;BME280;65265;53.200;6.080;2023-08-24T11:41:41;101426.47;;;19.88;100.00
76434;BME280;65265;53.200;6.080;2023-08-24T11:46:32;101417.06;;;19.97;100.00
76434;BME280;65265;53.200;6.080;2023-08-24T11:51:27;101406.81;;;20.06;100.00
76434;BME280;65265;53.200;6.080;2023-08-24T11:56:19;101412.91;;;20.11;100.00
76434;BME280;65265;53.200;6.080;2023-08-24T12:01:12;101414.69;;;20.15;100.00
76434;BME280;65265;53.200;6.080;2023-08-24T12:06:10;101392.88;;;20.01;100.00
76434;BME280;65265;53.200;6.080;2023-08-24T12:11:03;101414.75;;;20.21;100.00
76434;BME280;65265;53.200;6.080;2023-08-24T12:16:00;101412.19;;;20.26;100.00
76434;BME280;65265;53.200;6.080;2023-08-24T12:20:52;101416.59;;;20.31;100.00
76434;BME280;65265;53.200;6.080;2023-08-24T12:25:43;101396.75;;;20.41;100.00
76434;BME280;65265;53.200;6.080;2023-08-24T12:30:48;101412.38;;;20.45;100.00
76434;BME280;65265;53.200;6.080;2023-08-24T12:35:40;101397.66;;;20.46;100.00
76434;BME280;65265;53.200;6.080;2023-08-24T12:40:32;101379.50;;;20.49;100.00
76434;BME280;65265;53.200;6.080;2023-08-24T12:45:24;101369.97;;;20.51;100.00
76434;BME280;65265;53.200;6.080;2023-08-24T12:50:17;101329.13;;;20.30;100.00
76434;BME280;65265;53.200;6.080;2023-08-24T12:55:09;101360.53;;;20.59;100.00
76434;BME280;65265;53.200;6.080;2023-08-24T13:00:00;101344.94;;;20.65;100.00
76434;BME280;65265;53.200;6.080;2023-08-24T13:04:52;101336.28;;;20.61;100.00
76434;BME280;65265;53.200;6.080;2023-08-24T13:09:46;101330.16;;;20.56;100.00
76434;BME280;65265;53.200;6.080;2023-08-24T13:14:37;101323.13;;;20.40;100.00
76434;BME280;65265;53.200;6.080;2023-08-24T13:19:29;101301.38;;;20.31;100.00
76434;BME280;65265;53.200;6.080;2023-08-24T13:24:21;101290.22;;;20.41;100.00
76434;BME280;65265;53.200;6.080;2023-08-24T13:29:14;101278.94;;;20.36;100.00
76434;BME280;65265;53.200;6.080;2023-08-24T13:34:06;101268.50;;;20.31;100.00
76434;BME280;65265;53.200;6.080;2023-08-24T13:38:59;101264.19;;;20.36;100.00
76434;BME280;65265;53.200;6.080;2023-08-24T13:43:50;101262.53;;;20.46;100.00
76434;BME280;65265;53.200;6.080;2023-08-24T13:48:44;101256.44;;;20.42;100.00
76434;BME280;65265;53.200;6.080;2023-08-24T13:53:35;101246.03;;;20.41;100.00
76434;BME280;65265;53.200;6.080;2023-08-24T13:58:27;101250.34;;;20.37;100.00
76434;BME280;65265;53.200;6.080;2023-08-24T14:03:19;101254.66;;;20.35;100.00
76434;BME280;65265;53.200;6.080;2023-08-24T14:08:12;101262.47;;;20.35;100.00
76434;BME280;65265;53.200;6.080;2023-08-24T14:13:04;101251.16;;;20.27;100.00
76434;BME280;65265;53.200;6.080;2023-08-24T14:17:55;101239.09;;;20.37;100.00
76434;BME280;65265;53.200;6.080;2023-08-24T14:22:47;101211.34;;;20.30;100.00
76434;BME280;65265;53.200;6.080;2023-08-24T14:27:40;101218.34;;;20.43;100.00
76434;BME280;65265;53.200;6.080;2023-08-24T14:32:32;101215.75;;;20.47;100.00
76434;BME280;65265;53.200;6.080;2023-08-24T14:37:24;101224.47;;;20.52;100.00
76434;BME280;65265;53.200;6.080;2023-08-24T14:42:16;101219.28;;;20.55;100.00
76434;BME280;65265;53.200;6.080;2023-08-24T14:47:09;101190.59;;;20.39;100.00
76434;BME280;65265;53.200;6.080;2023-08-24T14:52:00;101220.16;;;20.56;100.00
76434;BME280;65265;53.200;6.080;2023-08-24T14:56:52;101210.59;;;20.52;100.00
76434;BME280;65265;53.200;6.080;2023-08-24T15:01:43;101195.78;;;20.33;100.00
76434;BME280;65265;53.200;6.080;2023-08-24T15:06:37;101218.38;;;20.46;100.00
76434;BME280;65265;53.200;6.080;2023-08-24T15:11:28;101198.41;;;20.40;100.00
76434;BME280;65265;53.200;6.080;2023-08-24T15:16:20;101210.53;;;20.41;100.00
76434;BME280;65265;53.200;6.080;2023-08-24T15:21:12;101205.34;;;20.43;100.00
76434;BME280;65265;53.200;6.080;2023-08-24T15:26:07;101205.38;;;20.46;100.00
76434;BME280;65265;53.200;6.080;2023-08-24T15:30:58;101213.19;;;20.46;100.00
76434;BME280;65265;53.200;6.080;2023-08-24T15:35:50;101205.38;;;20.49;100.00
76434;BME280;65265;53.200;6.080;2023-08-24T15:40:42;101208.88;;;20.52;100.00
76434;BME280;65265;53.200;6.080;2023-08-24T15:45:35;101199.34;;;20.53;100.00
76434;BME280;65265;53.200;6.080;2023-08-24T15:50:27;101189.81;;;20.52;100.00
76434;BME280;65265;53.200;6.080;2023-08-24T15:55:18;101182.06;;;20.61;100.00
76434;BME280;65265;53.200;6.080;2023-08-24T16:00:11;101131.78;;;20.53;100.00
76434;BME280;65265;53.200;6.080;2023-08-24T16:05:06;101147.41;;;20.65;100.00
76434;BME280;65265;53.200;6.080;2023-08-24T16:09:58;101142.22;;;20.63;100.00
76434;BME280;65265;53.200;6.080;2023-08-24T16:14:50;101151.72;;;20.58;100.00
76434;BME280;65265;53.200;6.080;2023-08-24T16:19:42;101121.38;;;20.51;100.00
76434;BME280;65265;53.200;6.080;2023-08-24T16:24:36;101111.00;;;20.51;100.00
76434;BME280;65265;53.200;6.080;2023-08-24T16:29:28;101086.72;;;20.49;100.00
76434;BME280;65265;53.200;6.080;2023-08-24T16:34:19;101070.25;;;20.47;100.00
76434;BME280;65265;53.200;6.080;2023-08-24T16:39:12;101074.56;;;20.42;100.00
76434;BME280;65265;53.200;6.080;2023-08-24T16:44:05;101070.22;;;20.43;100.00
76434;BME280;65265;53.200;6.080;2023-08-24T16:48:57;101058.13;;;20.43;100.00
76434;BME280;65265;53.200;6.080;2023-08-24T16:53:48;101053.78;;;20.45;100.00
76434;BME280;65265;53.200;6.080;2023-08-24T16:58:40;101050.31;;;20.43;100.00
76434;BME280;65265;53.200;6.080;2023-08-24T17:03:33;101060.69;;;20.42;100.00
76434;BME280;65265;53.200;6.080;2023-08-24T17:08:24;101052.06;;;20.38;100.00
76434;BME280;65265;53.200;6.080;2023-08-24T17:13:16;101058.09;;;20.37;100.00
76434;BME280;65265;53.200;6.080;2023-08-24T17:18:08;101044.25;;;20.38;100.00
76434;BME280;65265;53.200;6.080;2023-08-24T17:23:01;101030.41;;;20.42;100.00
76434;BME280;65265;53.200;6.080;2023-08-24T17:27:53;101026.94;;;20.40;100.00
76434;BME280;65265;53.200;6.080;2023-08-24T17:32:45;101020.03;;;20.44;100.00
76434;BME280;65265;53.200;6.080;2023-08-24T17:37:37;101000.91;;;20.24;100.00
76434;BME280;65265;53.200;6.080;2023-08-24T17:42:30;101024.31;;;20.33;100.00
76434;BME280;65265;53.200;6.080;2023-08-24T17:47:22;101026.06;;;20.40;100.00
76434;BME280;65265;53.200;6.080;2023-08-24T17:52:13;101019.97;;;20.36;100.00
76434;BME280;65265;53.200;6.080;2023-08-24T17:57:05;101019.13;;;20.33;100.00
76434;BME280;65265;53.200;6.080;2023-08-24T18:01:59;100998.28;;;20.18;100.00
76434;BME280;65265;53.200;6.080;2023-08-24T18:06:50;101011.28;;;20.25;100.00
76434;BME280;65265;53.200;6.080;2023-08-24T18:11:42;101008.66;;;20.21;100.00
76434;BME280;65265;53.200;6.080;2023-08-24T18:16:33;101014.75;;;20.18;100.00
76434;BME280;65265;53.200;6.080;2023-08-24T18:21:27;101008.66;;;20.15;100.00
76434;BME280;65265;53.200;6.080;2023-08-24T18:26:19;101010.38;;;20.08;100.00
76434;BME280;65265;53.200;6.080;2023-08-24T18:31:10;100995.66;;;20.07;100.00
76434;BME280;65265;53.200;6.080;2023-08-24T18:36:02;100934.06;;;19.78;100.00
76434;BME280;65265;53.200;6.080;2023-08-24T18:40:56;100972.22;;;19.98;100.00
76434;BME280;65265;53.200;6.080;2023-08-24T18:45:53;100958.34;;;19.93;100.00
76434;BME280;65265;53.200;6.080;2023-08-24T18:50:45;100915.00;;;19.70;100.00
76434;BME280;65265;53.200;6.080;2023-08-24T18:55:36;100923.66;;;19.73;100.00
76434;BME280;65265;53.200;6.080;2023-08-24T19:00:30;100927.16;;;19.83;100.00
76434;BME280;65265;53.200;6.080;2023-08-24T19:05:22;100938.38;;;19.74;100.00
76434;BME280;65265;53.200;6.080;2023-08-24T19:10:14;100921.88;;;19.59;100.00
76434;BME280;65265;53.200;6.080;2023-08-24T19:15:07;100920.16;;;19.62;100.00
76434;BME280;65265;53.200;6.080;2023-08-24T19:20:00;100889.84;;;19.52;100.00
76434;BME280;65265;53.200;6.080;2023-08-24T19:24:51;100881.09;;;19.36;100.00
76434;BME280;65265;53.200;6.080;2023-08-24T19:29:43;100907.94;;;19.39;100.00
76434;BME280;65265;53.200;6.080;2023-08-24T19:34:35;100899.25;;;19.36;100.00
76434;BME280;65265;53.200;6.080;2023-08-24T19:39:28;100910.47;;;19.32;100.00
76434;BME280;65265;53.200;6.080;2023-08-24T19:44:21;100914.78;;;19.28;100.00
76434;BME280;65265;53.200;6.080;2023-08-24T19:49:13;100910.44;;;19.23;100.00
76434;BME280;65265;53.200;6.080;2023-08-24T19:54:05;100921.63;;;19.20;100.00
76434;BME280;65265;53.200;6.080;2023-08-24T19:58:58;100922.41;;;19.12;100.00
76434;BME280;65265;53.200;6.080;2023-08-24T20:03:50;100890.34;;;18.93;100.00
76434;BME280;65265;53.200;6.080;2023-08-24T20:08:41;100931.06;;;19.08;100.00
76434;BME280;65265;53.200;6.080;2023-08-24T20:13:33;100922.34;;;19.03;100.00
76434;BME280;65265;53.200;6.080;2023-08-24T20:18:26;100937.91;;;19.00;100.00
76434;BME280;65265;53.200;6.080;2023-08-24T20:23:18;100923.19;;;18.97;100.00
76434;BME280;65265;53.200;6.080;2023-08-24T20:28:09;100909.38;;;18.97;100.00
76434;BME280;65265;53.200;6.080;2023-08-24T20:33:01;100918.88;;;18.95;100.00
76434;BME280;65265;53.200;6.080;2023-08-24T20:37:54;100920.59;;;18.96;100.00
76434;BME280;65265;53.200;6.080;2023-08-24T20:42:46;100915.38;;;18.93;100.00
76434;BME280;65265;53.200;6.080;2023-08-24T20:47:37;100913.63;;;18.92;100.00
76434;BME280;65265;53.200;6.080;2023-08-24T20:52:29;100906.72;;;18.91;100.00
76434;BME280;65265;53.200;6.080;2023-08-24T20:57:22;100905.88;;;18.92;100.00
76434;BME280;65265;53.200;6.080;2023-08-24T21:02:14;100900.69;;;18.92;100.00
76434;BME280;65265;53.200;6.080;2023-08-24T21:07:06;100885.91;;;18.82;100.00
76434;BME280;65265;53.200;6.080;2023-08-24T21:11:58;100885.97;;;18.85;100.00
76434;BME280;65265;53.200;6.080;2023-08-24T21:16:51;100864.44;;;18.96;100.00
76434;BME280;65265;53.200;6.080;2023-08-24T21:21:43;100855.84;;;19.00;100.00
76434;BME280;65265;53.200;6.080;2023-08-24T21:26:35;100841.06;;;18.89;100.00
76434;BME280;65265;53.200;6.080;2023-08-24T21:31:26;100832.50;;;19.00;100.00
76434;BME280;65265;53.200;6.080;2023-08-24T21:36:20;100844.56;;;19.00;100.00
76434;BME280;65265;53.200;6.080;2023-08-24T21:41:12;100860.13;;;19.00;100.00
76434;BME280;65265;53.200;6.080;2023-08-24T21:46:03;100854.88;;;18.85;100.00
76434;BME280;65265;53.200;6.080;2023-08-24T21:50:57;100860.91;;;18.88;100.00
76434;BME280;65265;53.200;6.080;2023-08-24T21:55:52;100834.00;;;18.70;100.00
76434;BME280;65265;53.200;6.080;2023-08-24T22:00:43;100852.22;;;18.76;100.00
76434;BME280;65265;53.200;6.080;2023-08-24T22:05:36;100865.16;;;18.73;100.00
76434;BME280;65265;53.200;6.080;2023-08-24T22:10:27;100882.44;;;18.74;100.00
76434;BME280;65265;53.200;6.080;2023-08-24T22:15:20;100885.03;;;18.77;100.00
76434;BME280;65265;53.200;6.080;2023-08-24T22:20:12;100873.81;;;18.78;100.00
76434;BME280;65265;53.200;6.080;2023-08-24T22:25:04;100879.03;;;18.82;100.00
76434;BME280;65265;53.200;6.080;2023-08-24T22:29:56;100866.91;;;18.77;100.00
76434;BME280;65265;53.200;6.080;2023-08-24T22:34:49;100884.22;;;18.88;100.00
76434;BME280;65265;53.200;6.080;2023-08-24T22:39:41;100892.00;;;18.88;100.00
76434;BME280;65265;53.200;6.080;2023-08-24T22:44:33;100884.25;;;18.93;100.00
76434;BME280;65265;53.200;6.080;2023-08-24T22:49:24;100880.81;;;18.92;100.00
76434;BME280;65265;53.200;6.080;2023-08-24T22:54:18;100884.25;;;18.93;100.00
76434;BME280;65265;53.200;6.080;2023-08-24T22:59:10;100881.69;;;18.93;100.00
76434;BME280;65265;53.200;6.080;2023-08-24T23:04:02;100882.53;;;18.89;100.00
76434;BME280;65265;53.200;6.080;2023-08-24T23:08:54;100898.00;;;18.83;100.00
76434;BME280;65265;53.200;6.080;2023-08-24T23:13:48;100891.09;;;18.82;100.00
76434;BME280;65265;53.200;6.080;2023-08-24T23:18:40;100885.06;;;18.83;100.00
76434;BME280;65265;53.200;6.080;2023-08-24T23:23:31;100879.88;;;18.80;100.00
76434;BME280;65265;53.200;6.080;2023-08-24T23:28:23;100870.41;;;18.85;100.00
76434;BME280;65265;53.200;6.080;2023-08-24T23:33:16;100859.16;;;18.84;100.00
76434;BME280;65265;53.200;6.080;2023-08-24T23:38:08;100851.41;;;18.86;100.00
76434;BME280;65265;53.200;6.080;2023-08-24T23:43:00;100847.91;;;18.81;100.00
76434;BME280;65265;53.200;6.080;2023-08-24T23:47:51;100845.31;;;18.78;100.00
76434;BME280;65265;53.200;6.080;2023-08-24T23:52:45;100845.31;;;18.78;100.00
76434;BME280;65265;53.200;6.080;2023-08-24T23:57:36;100829.72;;;18.72;100.00
